sensor_id;sensor_type;location;lat;lon;timestamp;P1;durP1;ratioP1;P2;durP2;ratioP2
17127;SDS011;8679;50.842;4.322;2023-07-02T00:02:20;6.38;;;3.58;;
17127;SDS011;8679;50.842;4.322;2023-07-02T00:04:46;5.10;;;3.13;;
17127;SDS011;8679;50.842;4.322;2023-07-02T00:07:12;7.97;;;3.63;;
17127;SDS011;8679;50.842;4.322;2023-07-02T00:09:38;6.47;;;3.83;;
17127;SDS011;8679;50.842;4.322;2023-07-02T00:12:03;8.30;;;3.60;;
17127;SDS011;8679;50.842;4.322;2023-07-02T00:14:29;8.63;;;3.55;;
17127;SDS011;8679;50.842;4.322;2023-07-02T00:16:55;6.85;;;3.25;;
17127;SDS011;8679;50.842;4.322;2023-07-02T00:19:20;6.85;;;3.83;;
17127;SDS011;8679;50.842;4.322;2023-07-02T00:21:46;12.73;;;4.07;;
17127;SDS011;8679;50.842;4.322;2023-07-02T00:24:12;7.15;;;3.65;;
17127;SDS011;8679;50.842;4.322;2023-07-02T00:26:38;8.90;;;4.03;;
17127;SDS011;8679;50.842;4.322;2023-07-02T00:29:05;8.85;;;4.00;;
17127;SDS011;8679;50.842;4.322;2023-07-02T00:31:32;8.82;;;3.88;;
17127;SDS011;8679;50.842;4.322;2023-07-02T00:33:58;8.73;;;3.53;;
17127;SDS011;8679;50.842;4.322;2023-07-02T00:36:26;14.82;;;5.13;;
17127;SDS011;8679;50.842;4.322;2023-07-02T00:38:52;6.63;;;3.85;;
17127;SDS011;8679;50.842;4.322;2023-07-02T00:41:17;8.15;;;5.00;;
17127;SDS011;8679;50.842;4.322;2023-07-02T00:43:43;7.85;;;3.72;;
17127;SDS011;8679;50.842;4.322;2023-07-02T00:46:16;9.32;;;3.85;;
17127;SDS011;8679;50.842;4.322;2023-07-02T00:48:45;4.90;;;3.08;;
17127;SDS011;8679;50.842;4.322;2023-07-02T00:51:19;10.52;;;4.85;;
17127;SDS011;8679;50.842;4.322;2023-07-02T00:53:46;10.05;;;4.70;;
17127;SDS011;8679;50.842;4.322;2023-07-02T00:56:13;13.50;;;4.15;;
17127;SDS011;8679;50.842;4.322;2023-07-02T00:58:40;7.00;;;4.05;;
17127;SDS011;8679;50.842;4.322;2023-07-02T01:01:12;6.43;;;3.50;;
17127;SDS011;8679;50.842;4.322;2023-07-02T01:03:39;8.93;;;4.15;;
17127;SDS011;8679;50.842;4.322;2023-07-02T01:06:17;8.65;;;3.17;;
17127;SDS011;8679;50.842;4.322;2023-07-02T01:08:44;8.48;;;4.20;;
17127;SDS011;8679;50.842;4.322;2023-07-02T01:11:10;7.78;;;3.83;;
17127;SDS011;8679;50.842;4.322;2023-07-02T01:13:36;9.88;;;3.67;;
17127;SDS011;8679;50.842;4.322;2023-07-02T01:16:02;10.10;;;4.13;;
17127;SDS011;8679;50.842;4.322;2023-07-02T01:18:28;6.28;;;3.67;;
17127;SDS011;8679;50.842;4.322;2023-07-02T01:20:55;8.48;;;4.20;;
17127;SDS011;8679;50.842;4.322;2023-07-02T01:23:21;10.52;;;4.85;;
17127;SDS011;8679;50.842;4.322;2023-07-02T01:25:46;8.23;;;3.97;;
17127;SDS011;8679;50.842;4.322;2023-07-02T01:28:12;8.65;;;4.72;;
17127;SDS011;8679;50.842;4.322;2023-07-02T01:30:38;7.20;;;4.10;;
17127;SDS011;8679;50.842;4.322;2023-07-02T01:33:04;8.65;;;4.53;;
17127;SDS011;8679;50.842;4.322;2023-07-02T01:35:30;9.00;;;4.03;;
17127;SDS011;8679;50.842;4.322;2023-07-02T01:37:55;10.40;;;4.70;;
17127;SDS011;8679;50.842;4.322;2023-07-02T01:40:22;14.43;;;4.75;;
17127;SDS011;8679;50.842;4.322;2023-07-02T01:42:47;12.63;;;4.30;;
17127;SDS011;8679;50.842;4.322;2023-07-02T01:45:13;10.40;;;5.30;;
17127;SDS011;8679;50.842;4.322;2023-07-02T01:47:38;9.65;;;4.40;;
17127;SDS011;8679;50.842;4.322;2023-07-02T01:50:04;9.75;;;5.75;;
17127;SDS011;8679;50.842;4.322;2023-07-02T01:52:31;10.70;;;5.00;;
17127;SDS011;8679;50.842;4.322;2023-07-02T01:54:58;9.02;;;4.65;;
17127;SDS011;8679;50.842;4.322;2023-07-02T01:57:24;10.23;;;4.38;;
17127;SDS011;8679;50.842;4.322;2023-07-02T01:59:50;7.85;;;3.60;;
17127;SDS011;8679;50.842;4.322;2023-07-02T02:02:16;12.45;;;4.35;;
17127;SDS011;8679;50.842;4.322;2023-07-02T02:04:41;6.47;;;4.07;;
17127;SDS011;8679;50.842;4.322;2023-07-02T02:07:07;9.07;;;4.63;;
17127;SDS011;8679;50.842;4.322;2023-07-02T02:09:32;11.45;;;6.13;;
17127;SDS011;8679;50.842;4.322;2023-07-02T02:11:58;7.20;;;3.72;;
17127;SDS011;8679;50.842;4.322;2023-07-02T02:14:24;7.47;;;3.10;;
17127;SDS011;8679;50.842;4.322;2023-07-02T02:16:49;9.30;;;4.50;;
17127;SDS011;8679;50.842;4.322;2023-07-02T02:19:15;8.32;;;4.80;;
17127;SDS011;8679;50.842;4.322;2023-07-02T02:21:41;9.85;;;4.47;;
17127;SDS011;8679;50.842;4.322;2023-07-02T02:24:07;12.00;;;4.53;;
17127;SDS011;8679;50.842;4.322;2023-07-02T02:26:33;11.35;;;4.88;;
17127;SDS011;8679;50.842;4.322;2023-07-02T02:28:59;8.48;;;4.93;;
17127;SDS011;8679;50.842;4.322;2023-07-02T02:31:25;7.80;;;4.90;;
17127;SDS011;8679;50.842;4.322;2023-07-02T02:33:51;9.95;;;5.05;;
17127;SDS011;8679;50.842;4.322;2023-07-02T02:36:17;9.68;;;5.45;;
17127;SDS011;8679;50.842;4.322;2023-07-02T02:38:42;10.60;;;4.85;;
17127;SDS011;8679;50.842;4.322;2023-07-02T02:41:08;8.00;;;4.72;;
17127;SDS011;8679;50.842;4.322;2023-07-02T02:43:34;10.60;;;4.78;;
17127;SDS011;8679;50.842;4.322;2023-07-02T02:45:59;11.13;;;4.77;;
17127;SDS011;8679;50.842;4.322;2023-07-02T02:48:25;8.73;;;5.37;;
17127;SDS011;8679;50.842;4.322;2023-07-02T02:50:51;14.80;;;5.45;;
17127;SDS011;8679;50.842;4.322;2023-07-02T02:53:16;9.13;;;4.40;;
17127;SDS011;8679;50.842;4.322;2023-07-02T02:55:42;7.77;;;4.07;;
17127;SDS011;8679;50.842;4.322;2023-07-02T02:58:08;11.52;;;5.32;;
17127;SDS011;8679;50.842;4.322;2023-07-02T03:00:33;7.82;;;4.50;;
17127;SDS011;8679;50.842;4.322;2023-07-02T03:02:59;10.57;;;5.73;;
17127;SDS011;8679;50.842;4.322;2023-07-02T03:05:24;11.00;;;4.97;;
17127;SDS011;8679;50.842;4.322;2023-07-02T03:07:51;10.23;;;5.30;;
17127;SDS011;8679;50.842;4.322;2023-07-02T03:10:17;8.93;;;5.63;;
17127;SDS011;8679;50.842;4.322;2023-07-02T03:12:42;12.33;;;4.80;;
17127;SDS011;8679;50.842;4.322;2023-07-02T03:15:08;8.03;;;4.57;;
17127;SDS011;8679;50.842;4.322;2023-07-02T03:17:35;8.82;;;4.43;;
17127;SDS011;8679;50.842;4.322;2023-07-02T03:20:00;16.07;;;5.40;;
17127;SDS011;8679;50.842;4.322;2023-07-02T03:22:29;8.03;;;4.33;;
17127;SDS011;8679;50.842;4.322;2023-07-02T03:24:54;13.60;;;5.53;;
17127;SDS011;8679;50.842;4.322;2023-07-02T03:27:20;14.63;;;5.77;;
17127;SDS011;8679;50.842;4.322;2023-07-02T03:29:46;10.57;;;5.40;;
17127;SDS011;8679;50.842;4.322;2023-07-02T03:32:11;15.00;;;5.80;;
17127;SDS011;8679;50.842;4.322;2023-07-02T03:34:37;15.07;;;5.60;;
17127;SDS011;8679;50.842;4.322;2023-07-02T03:37:02;12.50;;;5.37;;
17127;SDS011;8679;50.842;4.322;2023-07-02T03:39:28;13.20;;;6.03;;
17127;SDS011;8679;50.842;4.322;2023-07-02T03:41:54;11.77;;;4.77;;
17127;SDS011;8679;50.842;4.322;2023-07-02T03:44:19;11.47;;;5.70;;
17127;SDS011;8679;50.842;4.322;2023-07-02T03:46:45;10.40;;;6.28;;
17127;SDS011;8679;50.842;4.322;2023-07-02T03:49:10;10.00;;;4.60;;
17127;SDS011;8679;50.842;4.322;2023-07-02T03:51:36;13.37;;;5.20;;
17127;SDS011;8679;50.842;4.322;2023-07-02T03:54:02;11.03;;;5.27;;
17127;SDS011;8679;50.842;4.322;2023-07-02T03:56:27;11.00;;;5.90;;
17127;SDS011;8679;50.842;4.322;2023-07-02T03:58:53;9.87;;;4.23;;
17127;SDS011;8679;50.842;4.322;2023-07-02T04:01:18;10.13;;;5.43;;
17127;SDS011;8679;50.842;4.322;2023-07-02T04:03:51;10.73;;;5.90;;
17127;SDS011;8679;50.842;4.322;2023-07-02T04:06:18;11.73;;;6.47;;
17127;SDS011;8679;50.842;4.322;2023-07-02T04:08:44;10.13;;;5.03;;
17127;SDS011;8679;50.842;4.322;2023-07-02T04:11:10;14.27;;;5.73;;
17127;SDS011;8679;50.842;4.322;2023-07-02T04:13:36;12.33;;;5.30;;
17127;SDS011;8679;50.842;4.322;2023-07-02T04:16:03;15.63;;;6.47;;
17127;SDS011;8679;50.842;4.322;2023-07-02T04:18:29;10.17;;;4.17;;
17127;SDS011;8679;50.842;4.322;2023-07-02T04:20:55;13.07;;;5.90;;
17127;SDS011;8679;50.842;4.322;2023-07-02T04:23:21;10.10;;;4.83;;
17127;SDS011;8679;50.842;4.322;2023-07-02T04:25:46;12.63;;;6.23;;
17127;SDS011;8679;50.842;4.322;2023-07-02T04:28:12;11.60;;;6.03;;
17127;SDS011;8679;50.842;4.322;2023-07-02T04:30:38;15.00;;;6.47;;
17127;SDS011;8679;50.842;4.322;2023-07-02T04:33:03;12.30;;;6.57;;
17127;SDS011;8679;50.842;4.322;2023-07-02T04:35:30;13.33;;;5.40;;
17127;SDS011;8679;50.842;4.322;2023-07-02T04:37:56;13.70;;;6.53;;
17127;SDS011;8679;50.842;4.322;2023-07-02T04:40:22;10.50;;;6.13;;
17127;SDS011;8679;50.842;4.322;2023-07-02T04:42:48;13.27;;;6.53;;
17127;SDS011;8679;50.842;4.322;2023-07-02T04:45:14;12.30;;;5.97;;
17127;SDS011;8679;50.842;4.322;2023-07-02T04:47:43;10.90;;;6.03;;
17127;SDS011;8679;50.842;4.322;2023-07-02T04:50:09;10.50;;;5.60;;
17127;SDS011;8679;50.842;4.322;2023-07-02T04:52:35;11.80;;;5.67;;
17127;SDS011;8679;50.842;4.322;2023-07-02T04:55:02;8.47;;;5.43;;
17127;SDS011;8679;50.842;4.322;2023-07-02T04:57:28;10.03;;;6.00;;
17127;SDS011;8679;50.842;4.322;2023-07-02T04:59:54;12.40;;;5.97;;
17127;SDS011;8679;50.842;4.322;2023-07-02T05:02:19;11.97;;;7.07;;
17127;SDS011;8679;50.842;4.322;2023-07-02T05:04:45;14.17;;;5.80;;
17127;SDS011;8679;50.842;4.322;2023-07-02T05:07:11;15.30;;;6.33;;
17127;SDS011;8679;50.842;4.322;2023-07-02T05:09:37;8.63;;;5.40;;
17127;SDS011;8679;50.842;4.322;2023-07-02T05:12:02;10.87;;;6.20;;
17127;SDS011;8679;50.842;4.322;2023-07-02T05:14:28;12.23;;;6.23;;
17127;SDS011;8679;50.842;4.322;2023-07-02T05:16:54;11.53;;;6.10;;
17127;SDS011;8679;50.842;4.322;2023-07-02T05:19:19;11.97;;;6.50;;
17127;SDS011;8679;50.842;4.322;2023-07-02T05:21:45;12.80;;;6.60;;
17127;SDS011;8679;50.842;4.322;2023-07-02T05:24:11;13.30;;;6.97;;
17127;SDS011;8679;50.842;4.322;2023-07-02T05:26:36;13.27;;;5.70;;
17127;SDS011;8679;50.842;4.322;2023-07-02T05:29:02;11.50;;;5.27;;
17127;SDS011;8679;50.842;4.322;2023-07-02T05:31:27;11.17;;;5.77;;
17127;SDS011;8679;50.842;4.322;2023-07-02T05:33:54;8.47;;;4.93;;
17127;SDS011;8679;50.842;4.322;2023-07-02T05:36:20;15.20;;;6.53;;
17127;SDS011;8679;50.842;4.322;2023-07-02T05:38:46;12.50;;;5.73;;
17127;SDS011;8679;50.842;4.322;2023-07-02T05:41:17;10.47;;;4.90;;
17127;SDS011;8679;50.842;4.322;2023-07-02T05:43:46;13.13;;;6.10;;
17127;SDS011;8679;50.842;4.322;2023-07-02T05:46:12;20.93;;;7.57;;
17127;SDS011;8679;50.842;4.322;2023-07-02T05:48:39;14.13;;;5.77;;
17127;SDS011;8679;50.842;4.322;2023-07-02T05:51:06;11.85;;;5.13;;
17127;SDS011;8679;50.842;4.322;2023-07-02T05:53:32;15.93;;;5.78;;
17127;SDS011;8679;50.842;4.322;2023-07-02T05:55:58;11.90;;;5.00;;
17127;SDS011;8679;50.842;4.322;2023-07-02T05:58:23;8.10;;;4.70;;
17127;SDS011;8679;50.842;4.322;2023-07-02T06:00:49;11.27;;;5.43;;
17127;SDS011;8679;50.842;4.322;2023-07-02T06:03:15;13.10;;;5.97;;
17127;SDS011;8679;50.842;4.322;2023-07-02T06:05:45;7.53;;;4.32;;
17127;SDS011;8679;50.842;4.322;2023-07-02T06:08:13;8.60;;;5.35;;
17127;SDS011;8679;50.842;4.322;2023-07-02T06:10:38;13.82;;;6.40;;
17127;SDS011;8679;50.842;4.322;2023-07-02T06:13:04;11.63;;;6.32;;
17127;SDS011;8679;50.842;4.322;2023-07-02T06:15:29;10.35;;;5.25;;
17127;SDS011;8679;50.842;4.322;2023-07-02T06:17:55;11.07;;;5.28;;
17127;SDS011;8679;50.842;4.322;2023-07-02T06:20:22;14.63;;;6.43;;
17127;SDS011;8679;50.842;4.322;2023-07-02T06:22:48;14.20;;;5.80;;
17127;SDS011;8679;50.842;4.322;2023-07-02T06:25:13;9.05;;;5.05;;
17127;SDS011;8679;50.842;4.322;2023-07-02T06:27:39;9.65;;;5.10;;
17127;SDS011;8679;50.842;4.322;2023-07-02T06:30:05;12.70;;;5.40;;
17127;SDS011;8679;50.842;4.322;2023-07-02T06:32:31;11.75;;;4.60;;
17127;SDS011;8679;50.842;4.322;2023-07-02T06:34:57;10.98;;;5.60;;
17127;SDS011;8679;50.842;4.322;2023-07-02T06:37:22;11.50;;;5.25;;
17127;SDS011;8679;50.842;4.322;2023-07-02T06:39:48;11.20;;;4.90;;
17127;SDS011;8679;50.842;4.322;2023-07-02T06:42:14;9.23;;;5.15;;
17127;SDS011;8679;50.842;4.322;2023-07-02T06:44:40;9.10;;;3.65;;
17127;SDS011;8679;50.842;4.322;2023-07-02T06:47:05;7.88;;;4.15;;
17127;SDS011;8679;50.842;4.322;2023-07-02T06:49:31;12.68;;;5.18;;
17127;SDS011;8679;50.842;4.322;2023-07-02T06:51:57;9.40;;;4.13;;
17127;SDS011;8679;50.842;4.322;2023-07-02T06:54:22;7.10;;;3.88;;
17127;SDS011;8679;50.842;4.322;2023-07-02T06:56:48;6.97;;;3.08;;
17127;SDS011;8679;50.842;4.322;2023-07-02T06:59:18;8.45;;;4.50;;
17127;SDS011;8679;50.842;4.322;2023-07-02T07:01:45;9.32;;;3.92;;
17127;SDS011;8679;50.842;4.322;2023-07-02T07:04:10;9.60;;;4.25;;
17127;SDS011;8679;50.842;4.322;2023-07-02T07:06:36;10.95;;;3.47;;
17127;SDS011;8679;50.842;4.322;2023-07-02T07:09:02;5.35;;;2.80;;
17127;SDS011;8679;50.842;4.322;2023-07-02T07:11:28;5.65;;;2.78;;
17127;SDS011;8679;50.842;4.322;2023-07-02T07:13:53;4.75;;;2.30;;
17127;SDS011;8679;50.842;4.322;2023-07-02T07:16:19;8.10;;;3.10;;
17127;SDS011;8679;50.842;4.322;2023-07-02T07:18:45;6.95;;;2.83;;
17127;SDS011;8679;50.842;4.322;2023-07-02T07:21:10;3.45;;;2.40;;
17127;SDS011;8679;50.842;4.322;2023-07-02T07:23:36;7.90;;;3.58;;
17127;SDS011;8679;50.842;4.322;2023-07-02T07:26:02;8.85;;;3.95;;
17127;SDS011;8679;50.842;4.322;2023-07-02T07:28:27;6.60;;;3.38;;
17127;SDS011;8679;50.842;4.322;2023-07-02T07:30:53;9.70;;;3.45;;
17127;SDS011;8679;50.842;4.322;2023-07-02T07:33:18;6.68;;;3.40;;
17127;SDS011;8679;50.842;4.322;2023-07-02T07:35:44;8.15;;;3.47;;
17127;SDS011;8679;50.842;4.322;2023-07-02T07:38:10;6.25;;;2.78;;
17127;SDS011;8679;50.842;4.322;2023-07-02T07:40:42;4.47;;;2.30;;
17127;SDS011;8679;50.842;4.322;2023-07-02T07:43:08;6.28;;;3.10;;
17127;SDS011;8679;50.842;4.322;2023-07-02T07:45:34;5.18;;;2.88;;
17127;SDS011;8679;50.842;4.322;2023-07-02T07:48:00;7.05;;;3.22;;
17127;SDS011;8679;50.842;4.322;2023-07-02T07:50:26;4.68;;;2.97;;
17127;SDS011;8679;50.842;4.322;2023-07-02T07:52:52;6.10;;;3.25;;
17127;SDS011;8679;50.842;4.322;2023-07-02T07:55:18;5.15;;;3.05;;
17127;SDS011;8679;50.842;4.322;2023-07-02T07:57:43;6.97;;;3.38;;
17127;SDS011;8679;50.842;4.322;2023-07-02T08:00:09;3.83;;;2.17;;
17127;SDS011;8679;50.842;4.322;2023-07-02T08:02:36;5.95;;;2.50;;
17127;SDS011;8679;50.842;4.322;2023-07-02T08:05:02;6.05;;;2.90;;
17127;SDS011;8679;50.842;4.322;2023-07-02T08:07:28;5.38;;;2.58;;
17127;SDS011;8679;50.842;4.322;2023-07-02T08:09:54;3.67;;;2.03;;
17127;SDS011;8679;50.842;4.322;2023-07-02T08:12:19;6.82;;;2.33;;
17127;SDS011;8679;50.842;4.322;2023-07-02T08:14:45;4.13;;;2.72;;
17127;SDS011;8679;50.842;4.322;2023-07-02T08:17:11;6.13;;;2.65;;
17127;SDS011;8679;50.842;4.322;2023-07-02T08:19:36;7.97;;;3.35;;
17127;SDS011;8679;50.842;4.322;2023-07-02T08:22:02;5.28;;;2.42;;
17127;SDS011;8679;50.842;4.322;2023-07-02T08:24:28;8.57;;;2.70;;
17127;SDS011;8679;50.842;4.322;2023-07-02T08:26:56;7.13;;;3.15;;
17127;SDS011;8679;50.842;4.322;2023-07-02T08:29:21;5.78;;;3.03;;
17127;SDS011;8679;50.842;4.322;2023-07-02T08:31:50;7.07;;;3.17;;
17127;SDS011;8679;50.842;4.322;2023-07-02T08:34:16;6.22;;;2.75;;
17127;SDS011;8679;50.842;4.322;2023-07-02T08:36:42;7.22;;;2.83;;
17127;SDS011;8679;50.842;4.322;2023-07-02T08:39:08;6.15;;;2.72;;
17127;SDS011;8679;50.842;4.322;2023-07-02T08:41:41;7.85;;;3.38;;
17127;SDS011;8679;50.842;4.322;2023-07-02T08:44:11;4.93;;;2.25;;
17127;SDS011;8679;50.842;4.322;2023-07-02T08:46:41;6.05;;;2.90;;
17127;SDS011;8679;50.842;4.322;2023-07-02T08:49:07;5.60;;;2.08;;
17127;SDS011;8679;50.842;4.322;2023-07-02T08:51:33;3.85;;;2.72;;
17127;SDS011;8679;50.842;4.322;2023-07-02T08:53:59;10.00;;;3.30;;
17127;SDS011;8679;50.842;4.322;2023-07-02T08:56:26;5.47;;;3.17;;
17127;SDS011;8679;50.842;4.322;2023-07-02T08:58:52;8.18;;;3.60;;
17127;SDS011;8679;50.842;4.322;2023-07-02T09:01:18;11.20;;;3.25;;
17127;SDS011;8679;50.842;4.322;2023-07-02T09:03:43;6.60;;;3.30;;
17127;SDS011;8679;50.842;4.322;2023-07-02T09:06:10;5.10;;;2.38;;
17127;SDS011;8679;50.842;4.322;2023-07-02T09:08:36;11.48;;;3.15;;
17127;SDS011;8679;50.842;4.322;2023-07-02T09:11:09;5.75;;;3.03;;
17127;SDS011;8679;50.842;4.322;2023-07-02T09:13:45;5.63;;;3.25;;
17127;SDS011;8679;50.842;4.322;2023-07-02T09:16:26;5.30;;;2.50;;
17127;SDS011;8679;50.842;4.322;2023-07-02T09:19:06;6.00;;;2.80;;
17127;SDS011;8679;50.842;4.322;2023-07-02T09:21:46;6.88;;;3.42;;
17127;SDS011;8679;50.842;4.322;2023-07-02T09:26:46;5.78;;;2.60;;
17127;SDS011;8679;50.842;4.322;2023-07-02T09:29:16;9.88;;;3.40;;
17127;SDS011;8679;50.842;4.322;2023-07-02T09:31:53;7.82;;;3.60;;
17127;SDS011;8679;50.842;4.322;2023-07-02T09:34:26;5.88;;;2.78;;
17127;SDS011;8679;50.842;4.322;2023-07-02T09:36:52;5.47;;;2.50;;
17127;SDS011;8679;50.842;4.322;2023-07-02T09:39:19;7.55;;;3.03;;
17127;SDS011;8679;50.842;4.322;2023-07-02T09:41:48;6.53;;;2.38;;
17127;SDS011;8679;50.842;4.322;2023-07-02T09:44:15;4.90;;;2.28;;
17127;SDS011;8679;50.842;4.322;2023-07-02T09:46:42;9.45;;;3.05;;
17127;SDS011;8679;50.842;4.322;2023-07-02T09:49:16;6.65;;;2.25;;
17127;SDS011;8679;50.842;4.322;2023-07-02T09:51:43;5.45;;;2.58;;
17127;SDS011;8679;50.842;4.322;2023-07-02T09:54:10;5.57;;;2.90;;
17127;SDS011;8679;50.842;4.322;2023-07-02T09:56:36;7.60;;;3.17;;
17127;SDS011;8679;50.842;4.322;2023-07-02T09:59:01;4.38;;;2.47;;
17127;SDS011;8679;50.842;4.322;2023-07-02T10:01:27;7.38;;;3.42;;
17127;SDS011;8679;50.842;4.322;2023-07-02T10:03:53;4.40;;;3.10;;
17127;SDS011;8679;50.842;4.322;2023-07-02T10:06:18;3.55;;;2.28;;
17127;SDS011;8679;50.842;4.322;2023-07-02T10:08:56;4.97;;;2.53;;
17127;SDS011;8679;50.842;4.322;2023-07-02T10:11:32;6.40;;;2.78;;
17127;SDS011;8679;50.842;4.322;2023-07-02T10:14:01;4.28;;;2.10;;
17127;SDS011;8679;50.842;4.322;2023-07-02T10:16:27;4.72;;;2.85;;
17127;SDS011;8679;50.842;4.322;2023-07-02T10:18:53;7.13;;;2.72;;
17127;SDS011;8679;50.842;4.322;2023-07-02T10:21:19;8.27;;;3.40;;
17127;SDS011;8679;50.842;4.322;2023-07-02T10:23:45;4.78;;;2.67;;
17127;SDS011;8679;50.842;4.322;2023-07-02T10:26:13;6.57;;;3.10;;
17127;SDS011;8679;50.842;4.322;2023-07-02T10:28:39;9.10;;;2.63;;
17127;SDS011;8679;50.842;4.322;2023-07-02T10:31:16;8.73;;;3.13;;
17127;SDS011;8679;50.842;4.322;2023-07-02T10:33:46;10.57;;;3.65;;
17127;SDS011;8679;50.842;4.322;2023-07-02T10:36:19;7.20;;;2.65;;
17127;SDS011;8679;50.842;4.322;2023-07-02T10:38:45;8.80;;;2.90;;
17127;SDS011;8679;50.842;4.322;2023-07-02T10:41:12;2.78;;;1.95;;
17127;SDS011;8679;50.842;4.322;2023-07-02T10:43:53;7.32;;;3.05;;
17127;SDS011;8679;50.842;4.322;2023-07-02T10:46:24;4.97;;;2.70;;
17127;SDS011;8679;50.842;4.322;2023-07-02T10:48:53;8.38;;;3.20;;
17127;SDS011;8679;50.842;4.322;2023-07-02T10:51:20;4.38;;;2.22;;
17127;SDS011;8679;50.842;4.322;2023-07-02T10:53:47;5.40;;;2.83;;
17127;SDS011;8679;50.842;4.322;2023-07-02T10:56:24;6.20;;;2.30;;
17127;SDS011;8679;50.842;4.322;2023-07-02T10:58:52;4.25;;;2.55;;
17127;SDS011;8679;50.842;4.322;2023-07-02T11:01:25;5.65;;;2.72;;
17127;SDS011;8679;50.842;4.322;2023-07-02T11:04:02;5.72;;;2.88;;
17127;SDS011;8679;50.842;4.322;2023-07-02T11:06:29;7.63;;;2.38;;
17127;SDS011;8679;50.842;4.322;2023-07-02T11:08:57;6.18;;;2.53;;
17127;SDS011;8679;50.842;4.322;2023-07-02T11:11:23;6.40;;;2.70;;
17127;SDS011;8679;50.842;4.322;2023-07-02T11:13:49;5.88;;;2.00;;
17127;SDS011;8679;50.842;4.322;2023-07-02T11:16:17;7.35;;;2.30;;
17127;SDS011;8679;50.842;4.322;2023-07-02T11:18:51;4.57;;;1.70;;
17127;SDS011;8679;50.842;4.322;2023-07-02T11:21:17;6.35;;;2.78;;
17127;SDS011;8679;50.842;4.322;2023-07-02T11:23:43;4.65;;;2.70;;
17127;SDS011;8679;50.842;4.322;2023-07-02T11:26:08;5.38;;;1.85;;
17127;SDS011;8679;50.842;4.322;2023-07-02T11:28:34;5.65;;;2.40;;
17127;SDS011;8679;50.842;4.322;2023-07-02T11:31:00;3.55;;;1.95;;
17127;SDS011;8679;50.842;4.322;2023-07-02T11:36:03;3.97;;;2.13;;
17127;SDS011;8679;50.842;4.322;2023-07-02T11:38:30;4.50;;;2.17;;
17127;SDS011;8679;50.842;4.322;2023-07-02T11:40:56;6.45;;;2.85;;
17127;SDS011;8679;50.842;4.322;2023-07-02T11:43:21;6.95;;;2.22;;
17127;SDS011;8679;50.842;4.322;2023-07-02T11:45:47;6.03;;;2.92;;
17127;SDS011;8679;50.842;4.322;2023-07-02T11:48:12;5.13;;;1.77;;
17127;SDS011;8679;50.842;4.322;2023-07-02T11:50:38;4.28;;;2.05;;
17127;SDS011;8679;50.842;4.322;2023-07-02T11:53:04;5.03;;;2.15;;
17127;SDS011;8679;50.842;4.322;2023-07-02T11:55:29;6.55;;;2.17;;
17127;SDS011;8679;50.842;4.322;2023-07-02T11:57:55;5.63;;;2.47;;
17127;SDS011;8679;50.842;4.322;2023-07-02T12:00:21;3.95;;;2.15;;
17127;SDS011;8679;50.842;4.322;2023-07-02T12:02:46;4.68;;;2.53;;
17127;SDS011;8679;50.842;4.322;2023-07-02T12:05:13;4.05;;;2.05;;
17127;SDS011;8679;50.842;4.322;2023-07-02T12:07:38;4.40;;;2.60;;
17127;SDS011;8679;50.842;4.322;2023-07-02T12:10:04;3.83;;;2.25;;
17127;SDS011;8679;50.842;4.322;2023-07-02T12:12:31;2.85;;;2.00;;
17127;SDS011;8679;50.842;4.322;2023-07-02T12:14:56;8.07;;;2.53;;
17127;SDS011;8679;50.842;4.322;2023-07-02T12:17:22;4.72;;;2.42;;
17127;SDS011;8679;50.842;4.322;2023-07-02T12:19:47;4.82;;;2.15;;
17127;SDS011;8679;50.842;4.322;2023-07-02T12:22:13;9.52;;;2.67;;
17127;SDS011;8679;50.842;4.322;2023-07-02T12:24:42;6.72;;;2.75;;
17127;SDS011;8679;50.842;4.322;2023-07-02T12:27:08;3.97;;;2.10;;
17127;SDS011;8679;50.842;4.322;2023-07-02T12:29:35;4.22;;;2.22;;
17127;SDS011;8679;50.842;4.322;2023-07-02T12:32:00;3.13;;;1.83;;
17127;SDS011;8679;50.842;4.322;2023-07-02T12:34:26;5.53;;;2.75;;
17127;SDS011;8679;50.842;4.322;2023-07-02T12:36:54;4.40;;;1.90;;
17127;SDS011;8679;50.842;4.322;2023-07-02T12:39:20;4.47;;;2.20;;
17127;SDS011;8679;50.842;4.322;2023-07-02T12:41:45;4.47;;;2.63;;
17127;SDS011;8679;50.842;4.322;2023-07-02T12:44:11;4.05;;;2.40;;
17127;SDS011;8679;50.842;4.322;2023-07-02T12:46:36;4.50;;;2.03;;
17127;SDS011;8679;50.842;4.322;2023-07-02T12:49:02;4.72;;;2.15;;
17127;SDS011;8679;50.842;4.322;2023-07-02T12:51:27;2.47;;;1.70;;
17127;SDS011;8679;50.842;4.322;2023-07-02T12:53:53;2.80;;;1.60;;
17127;SDS011;8679;50.842;4.322;2023-07-02T12:56:19;6.55;;;2.40;;
17127;SDS011;8679;50.842;4.322;2023-07-02T12:58:44;4.05;;;2.30;;
17127;SDS011;8679;50.842;4.322;2023-07-02T13:01:10;4.53;;;1.95;;
17127;SDS011;8679;50.842;4.322;2023-07-02T13:03:35;3.10;;;1.73;;
17127;SDS011;8679;50.842;4.322;2023-07-02T13:06:01;4.75;;;1.80;;
17127;SDS011;8679;50.842;4.322;2023-07-02T13:08:27;5.15;;;2.03;;
17127;SDS011;8679;50.842;4.322;2023-07-02T13:10:52;3.92;;;1.92;;
17127;SDS011;8679;50.842;4.322;2023-07-02T13:13:18;5.90;;;1.65;;
17127;SDS011;8679;50.842;4.322;2023-07-02T13:15:43;4.90;;;2.13;;
17127;SDS011;8679;50.842;4.322;2023-07-02T13:18:09;4.72;;;2.35;;
17127;SDS011;8679;50.842;4.322;2023-07-02T13:20:34;3.53;;;1.92;;
17127;SDS011;8679;50.842;4.322;2023-07-02T13:23:00;2.92;;;1.60;;
17127;SDS011;8679;50.842;4.322;2023-07-02T13:25:26;4.50;;;2.10;;
17127;SDS011;8679;50.842;4.322;2023-07-02T13:27:51;4.50;;;1.95;;
17127;SDS011;8679;50.842;4.322;2023-07-02T13:30:17;4.50;;;2.05;;
17127;SDS011;8679;50.842;4.322;2023-07-02T13:32:42;4.40;;;2.38;;
17127;SDS011;8679;50.842;4.322;2023-07-02T13:35:08;4.07;;;2.47;;
17127;SDS011;8679;50.842;4.322;2023-07-02T13:37:34;5.63;;;3.08;;
17127;SDS011;8679;50.842;4.322;2023-07-02T13:40:00;4.82;;;1.98;;
17127;SDS011;8679;50.842;4.322;2023-07-02T13:42:27;6.88;;;1.77;;
17127;SDS011;8679;50.842;4.322;2023-07-02T13:44:52;4.78;;;1.95;;
17127;SDS011;8679;50.842;4.322;2023-07-02T13:47:18;3.17;;;1.60;;
17127;SDS011;8679;50.842;4.322;2023-07-02T13:49:43;2.75;;;1.58;;
17127;SDS011;8679;50.842;4.322;2023-07-02T13:52:09;4.35;;;2.05;;
17127;SDS011;8679;50.842;4.322;2023-07-02T13:54:34;5.65;;;1.63;;
17127;SDS011;8679;50.842;4.322;2023-07-02T13:57:00;7.40;;;2.58;;
17127;SDS011;8679;50.842;4.322;2023-07-02T13:59:26;5.13;;;2.25;;
17127;SDS011;8679;50.842;4.322;2023-07-02T14:01:51;4.82;;;2.30;;
17127;SDS011;8679;50.842;4.322;2023-07-02T14:04:17;5.35;;;2.78;;
17127;SDS011;8679;50.842;4.322;2023-07-02T14:06:44;3.50;;;1.80;;
17127;SDS011;8679;50.842;4.322;2023-07-02T14:09:10;5.65;;;2.00;;
17127;SDS011;8679;50.842;4.322;2023-07-02T14:11:36;4.35;;;2.00;;
17127;SDS011;8679;50.842;4.322;2023-07-02T14:14:03;6.40;;;2.42;;
17127;SDS011;8679;50.842;4.322;2023-07-02T14:16:30;3.35;;;1.70;;
17127;SDS011;8679;50.842;4.322;2023-07-02T14:18:56;5.82;;;1.98;;
17127;SDS011;8679;50.842;4.322;2023-07-02T14:21:22;4.93;;;2.20;;
17127;SDS011;8679;50.842;4.322;2023-07-02T14:23:47;4.93;;;1.83;;
17127;SDS011;8679;50.842;4.322;2023-07-02T14:26:13;4.50;;;1.85;;
17127;SDS011;8679;50.842;4.322;2023-07-02T14:28:39;3.53;;;2.10;;
17127;SDS011;8679;50.842;4.322;2023-07-02T14:31:05;6.97;;;2.33;;
17127;SDS011;8679;50.842;4.322;2023-07-02T14:33:32;4.63;;;2.42;;
17127;SDS011;8679;50.842;4.322;2023-07-02T14:35:59;4.20;;;2.33;;
17127;SDS011;8679;50.842;4.322;2023-07-02T14:38:25;5.85;;;1.70;;
17127;SDS011;8679;50.842;4.322;2023-07-02T14:40:52;4.13;;;2.85;;
17127;SDS011;8679;50.842;4.322;2023-07-02T14:43:19;4.80;;;1.52;;
17127;SDS011;8679;50.842;4.322;2023-07-02T14:45:51;8.20;;;2.33;;
17127;SDS011;8679;50.842;4.322;2023-07-02T14:48:18;5.30;;;2.15;;
17127;SDS011;8679;50.842;4.322;2023-07-02T14:50:54;3.15;;;1.40;;
17127;SDS011;8679;50.842;4.322;2023-07-02T14:53:24;7.57;;;2.80;;
17127;SDS011;8679;50.842;4.322;2023-07-02T14:55:51;5.82;;;1.77;;
17127;SDS011;8679;50.842;4.322;2023-07-02T14:58:19;3.38;;;1.92;;
17127;SDS011;8679;50.842;4.322;2023-07-02T15:00:45;4.47;;;2.05;;